Time;durP1;ratioP1;P1;durP2;ratioP2;P2;SDS_P1;SDS_P2;PMS_P1;PMS_P2;Temp;Humidity;BMP_temperature;BMP_pressure;BME280_temperature;BME280_humidity;BME280_pressure;Samples;Min_cycle;Max_cycle;Signal;HPM_P1;HPM_P2
2022/08/13 00:00:43;;;;;;;9.18;8.35;;;;;;;;;;5034969;28;20137;-65
2022/08/13 00:03:13;;;;;;;8.90;8.10;;;;;;;;;;5035101;28;20046;-65
2022/08/13 00:06:02;;;;;;;9.02;8.25;;;;;;;;;;5034980;28;20152;-65
2022/08/13 00:08:28;;;;;;;8.80;7.90;;;;;;;;;;5034901;28;20050;-65
2022/08/13 00:10:55;;;;;;;8.77;8.00;;;;;;;;;;5033359;28;20095;-65
2022/08/13 00:13:25;;;;;;;8.77;8.15;;;;;;;;;;5034764;28;20287;-65
2022/08/13 00:16:09;;;;;;;8.90;8.07;;;;;;;;;;5034626;28;20050;-65
2022/08/13 00:18:38;;;;;;;8.40;7.70;;;;;;;;;;5034912;28;20049;-65
2022/08/13 00:21:07;;;;;;;9.32;8.52;;;;;;;;;;5034722;28;20136;-65
2022/08/13 00:23:37;;;;;;;10.02;9.02;;;;;;;;;;5034527;28;20048;-65
2022/08/13 00:26:25;;;;;;;9.15;8.18;;;;;;;;;;5034600;28;20048;-65
2022/08/13 00:29:00;;;;;;;9.05;8.32;;;;;;;;;;5034451;28;20517;-65
2022/08/13 00:31:27;;;;;;;9.20;8.43;;;;;;;;;;5034254;28;20552;-65
2022/08/13 00:33:54;;;;;;;8.60;7.93;;;;;;;;;;5034539;28;20089;-64
2022/08/13 00:36:23;;;;;;;8.88;8.15;;;;;;;;;;5033359;28;20054;-65
2022/08/13 00:39:03;;;;;;;10.23;8.77;;;;;;;;;;5034195;28;20111;-65
2022/08/13 00:41:39;;;;;;;9.23;8.45;;;;;;;;;;5034185;28;20543;-65
2022/08/13 00:44:25;;;;;;;10.05;9.20;;;;;;;;;;5034089;28;20091;-65
2022/08/13 00:48:41;;;;;;;8.93;8.13;;;;;;;;;;5034285;28;20383;-65
2022/08/13 00:49:40;;;;;;;9.07;8.27;;;;;;;;;;5034062;28;20047;-65
2022/08/13 00:52:31;;;;;;;9.15;8.50;;;;;;;;;;5033150;28;20167;-65
2022/08/13 00:55:02;;;;;;;8.93;8.25;;;;;;;;;;5033992;28;20128;-65
2022/08/13 00:57:28;;;;;;;8.93;8.25;;;;;;;;;;5033921;28;20452;-65
2022/08/13 00:59:55;;;;;;;8.90;8.27;;;;;;;;;;5033711;28;20390;-65
2022/08/13 01:02:23;;;;;;;9.27;8.43;;;;;;;;;;5032980;28;20049;-65
2022/08/13 01:04:59;;;;;;;9.90;9.00;;;;;;;;;;5017507;28;20133;-65
2022/08/13 01:07:25;;;;;;;10.25;9.20;;;;;;;;;;5027504;28;20085;-65
2022/08/13 01:10:12;;;;;;;9.68;8.82;;;;;;;;;;5032957;28;20543;-65
2022/08/13 01:12:49;;;;;;;9.40;8.57;;;;;;;;;;5033423;28;20125;-65
2022/08/13 01:15:17;;;;;;;9.18;8.48;;;;;;;;;;5033538;28;20501;-65
2022/08/13 01:17:45;;;;;;;9.60;8.73;;;;;;;;;;5033498;28;20053;-65
2022/08/13 01:20:21;;;;;;;9.48;8.77;;;;;;;;;;5033523;28;20060;-65
2022/08/13 01:23:00;;;;;;;10.20;9.30;;;;;;;;;;5033271;28;20478;-65
2022/08/13 01:25:27;;;;;;;9.20;8.50;;;;;;;;;;5033492;28;20052;-65
2022/08/13 01:27:55;;;;;;;9.65;8.95;;;;;;;;;;5032526;28;20516;-65
2022/08/13 01:30:23;;;;;;;9.88;8.98;;;;;;;;;;5033625;28;20456;-65
2022/08/13 01:32:50;;;;;;;9.43;8.52;;;;;;;;;;5033216;28;20398;-65
2022/08/13 01:35:24;;;;;;;9.18;8.38;;;;;;;;;;5033404;28;20041;-65
2022/08/13 01:37:53;;;;;;;9.38;8.48;;;;;;;;;;5033380;28;20045;-65
2022/08/13 01:40:30;;;;;;;9.80;9.10;;;;;;;;;;5033428;28;20049;-65
2022/08/13 01:42:58;;;;;;;10.18;9.27;;;;;;;;;;5033221;28;20053;-65
2022/08/13 01:45:29;;;;;;;10.05;9.15;;;;;;;;;;5033318;28;20069;-65
2022/08/13 01:50:47;;;;;;;9.20;8.50;;;;;;;;;;5033215;28;20398;-65
2022/08/13 01:53:18;;;;;;;9.15;8.52;;;;;;;;;;5032884;28;20045;-65
2022/08/13 01:55:58;;;;;;;9.52;8.73;;;;;;;;;;5032819;28;20429;-65
2022/08/13 01:58:47;;;;;;;8.75;8.02;;;;;;;;;;5032932;28;20049;-65
2022/08/13 02:01:33;;;;;;;8.90;8.13;;;;;;;;;;5032807;28;20408;-65
2022/08/13 02:04:11;;;;;;;8.30;7.70;;;;;;;;;;5032814;28;20071;-65
2022/08/13 02:06:39;;;;;;;8.27;7.60;;;;;;;;;;5031642;28;20051;-65
2022/08/13 02:09:08;;;;;;;8.95;7.90;;;;;;;;;;5032205;28;20095;-65
2022/08/13 02:11:55;;;;;;;8.57;7.97;;;;;;;;;;5032735;28;20485;-65
2022/08/13 02:14:24;;;;;;;8.80;8.13;;;;;;;;;;5032394;28;20485;-65
2022/08/13 02:16:51;;;;;;;8.73;7.80;;;;;;;;;;5032314;28;20049;-65
2022/08/13 02:19:19;;;;;;;8.35;7.78;;;;;;;;;;5032561;28;20127;-65
2022/08/13 02:21:57;;;;;;;8.90;8.10;;;;;;;;;;5031883;28;20049;-65
2022/08/13 02:24:28;;;;;;;9.40;8.45;;;;;;;;;;5032111;28;20037;-65
2022/08/13 02:26:54;;;;;;;9.05;8.45;;;;;;;;;;5032240;28;20482;-65
2022/08/13 02:29:22;;;;;;;8.60;7.90;;;;;;;;;;5032050;28;20516;-65
2022/08/13 02:31:50;;;;;;;8.43;7.72;;;;;;;;;;5032303;28;20126;-65
2022/08/13 02:34:39;;;;;;;9.25;8.48;;;;;;;;;;5032195;28;20052;-65
2022/08/13 02:37:06;;;;;;;9.65;8.77;;;;;;;;;;5032322;28;20103;-65
2022/08/13 02:39:53;;;;;;;9.20;8.40;;;;;;;;;;5032144;28;20063;-65
2022/08/13 02:42:21;;;;;;;9.33;8.53;;;;;;;;;;5032203;28;20049;-65
2022/08/13 02:44:48;;;;;;;8.80;8.07;;;;;;;;;;5032174;28;20086;-65
2022/08/13 02:47:17;;;;;;;9.35;8.45;;;;;;;;;;5032033;28;20046;-65
2022/08/13 02:49:44;;;;;;;9.00;8.30;;;;;;;;;;5031773;28;20504;-65
2022/08/13 02:52:12;;;;;;;8.32;7.63;;;;;;;;;;5031823;28;20103;-65
2022/08/13 02:54:40;;;;;;;8.15;7.45;;;;;;;;;;5031689;28;20489;-65
2022/08/13 02:57:21;;;;;;;8.07;7.38;;;;;;;;;;5031911;28;20077;-65
2022/08/13 02:59:48;;;;;;;8.60;7.90;;;;;;;;;;5031806;28;20049;-65
2022/08/13 03:02:34;;;;;;;7.88;7.07;;;;;;;;;;5031700;28;20053;-65
2022/08/13 03:05:05;;;;;;;8.63;7.68;;;;;;;;;;5031936;28;20049;-65
2022/08/13 03:07:32;;;;;;;7.82;7.22;;;;;;;;;;5031654;28;20129;-65
2022/08/13 03:10:18;;;;;;;8.30;7.60;;;;;;;;;;5030470;28;20057;-65
2022/08/13 03:13:23;;;;;;;8.23;7.63;;;;;;;;;;5031605;28;20467;-65
2022/08/13 03:15:53;;;;;;;8.55;7.85;;;;;;;;;;5031604;28;20060;-65
2022/08/13 03:18:30;;;;;;;8.98;8.13;;;;;;;;;;5031825;28;20125;-65
2022/08/13 03:21:18;;;;;;;7.85;7.25;;;;;;;;;;5030508;28;20494;-65
2022/08/13 03:24:06;;;;;;;7.85;7.25;;;;;;;;;;5031253;28;20051;-65
2022/08/13 03:26:33;;;;;;;8.05;7.35;;;;;;;;;;5031417;28;20493;-65
2022/08/13 03:29:00;;;;;;;8.70;7.88;;;;;;;;;;5031511;28;20128;-65
2022/08/13 03:31:27;;;;;;;8.32;7.72;;;;;;;;;;5031395;28;20085;-65
2022/08/13 03:34:02;;;;;;;8.45;7.72;;;;;;;;;;5035663;28;20053;-65
2022/08/13 03:36:30;;;;;;;8.10;7.50;;;;;;;;;;5035535;28;20132;-65
2022/08/13 03:38:57;;;;;;;8.20;7.43;;;;;;;;;;5035688;28;20104;-65
2022/08/13 03:41:26;;;;;;;8.63;7.93;;;;;;;;;;5035365;28;20127;-65
2022/08/13 03:43:54;;;;;;;7.90;7.25;;;;;;;;;;5035274;28;20056;-65
2022/08/13 03:46:22;;;;;;;8.88;8.23;;;;;;;;;;5035126;28;20084;-65
2022/08/13 03:48:53;;;;;;;7.97;7.28;;;;;;;;;;5035128;28;20490;-65
2022/08/13 03:51:23;;;;;;;8.77;8.07;;;;;;;;;;5035366;28;20041;-65
2022/08/13 03:54:01;;;;;;;8.10;7.45;;;;;;;;;;5035246;28;20340;-65
2022/08/13 03:56:30;;;;;;;8.55;7.75;;;;;;;;;;5034971;28;20128;-65
2022/08/13 03:58:56;;;;;;;7.90;7.22;;;;;;;;;;5035186;28;20072;-65
2022/08/13 04:01:24;;;;;;;7.55;6.85;;;;;;;;;;5035541;28;20448;-65
2022/08/13 04:03:51;;;;;;;7.40;6.90;;;;;;;;;;5035030;28;20045;-65
2022/08/13 04:06:21;;;;;;;7.35;6.70;;;;;;;;;;5035182;28;20080;-65
2022/08/13 04:08:50;;;;;;;7.63;6.93;;;;;;;;;;5035080;28;20081;-65
2022/08/13 04:11:18;;;;;;;7.38;6.70;;;;;;;;;;5034616;28;20089;-65
2022/08/13 04:13:47;;;;;;;8.15;7.35;;;;;;;;;;5033657;28;20054;-65
2022/08/13 04:16:32;;;;;;;7.75;7.15;;;;;;;;;;5034980;28;20072;-65
2022/08/13 04:19:02;;;;;;;7.32;6.78;;;;;;;;;;5034725;28;20057;-65
2022/08/13 04:21:31;;;;;;;7.57;6.97;;;;;;;;;;5034710;28;20168;-65
2022/08/13 04:24:00;;;;;;;8.13;7.43;;;;;;;;;;5034290;28;20049;-65
2022/08/13 04:26:29;;;;;;;7.90;7.30;;;;;;;;;;5035022;28;20088;-65
2022/08/13 04:28:59;;;;;;;7.70;6.70;;;;;;;;;;5034476;28;20052;-65
2022/08/13 04:31:26;;;;;;;7.82;7.10;;;;;;;;;;5034650;28;20061;-65
2022/08/13 04:34:13;;;;;;;7.53;6.95;;;;;;;;;;5034421;28;20045;-65
2022/08/13 04:37:01;;;;;;;7.03;6.53;;;;;;;;;;5034527;28;20054;-65
2022/08/13 04:39:29;;;;;;;7.72;7.07;;;;;;;;;;5034508;28;20123;-65
2022/08/13 04:42:16;;;;;;;7.22;6.70;;;;;;;;;;5034477;28;20080;-65
2022/08/13 04:44:59;;;;;;;7.35;6.85;;;;;;;;;;5033582;28;20053;-65
2022/08/13 04:47:29;;;;;;;7.75;7.13;;;;;;;;;;5034545;28;20064;-65
2022/08/13 04:49:56;;;;;;;7.55;6.85;;;;;;;;;;5032802;28;20521;-65
2022/08/13 04:52:23;;;;;;;7.47;6.97;;;;;;;;;;5032890;28;20557;-65
2022/08/13 04:54:55;;;;;;;7.20;6.60;;;;;;;;;;5033921;28;20488;-65
2022/08/13 04:57:22;;;;;;;7.70;6.97;;;;;;;;;;5034292;28;20103;-65
2022/08/13 05:00:09;;;;;;;7.28;6.35;;;;;;;;;;5033698;28;20490;-65
2022/08/13 05:02:39;;;;;;;7.85;7.13;;;;;;;;;;5033820;28;20445;-65
2022/08/13 05:05:11;;;;;;;7.35;6.53;;;;;;;;;;5034020;28;20049;-65
2022/08/13 05:07:51;;;;;;;7.53;6.93;;;;;;;;;;5032642;28;20424;-65
2022/08/13 05:10:19;;;;;;;10.25;7.57;;;;;;;;;;5021924;28;20141;-65
2022/08/13 05:12:56;;;;;;;8.07;7.32;;;;;;;;;;5031083;28;20059;-66
2022/08/13 05:15:26;;;;;;;9.60;7.47;;;;;;;;;;5023925;28;20389;-66
2022/08/13 05:18:13;;;;;;;7.55;6.78;;;;;;;;;;5032955;28;20489;-66
2022/08/13 05:20:54;;;;;;;7.40;6.75;;;;;;;;;;5033315;28;20049;-66
2022/08/13 05:23:22;;;;;;;7.40;6.80;;;;;;;;;;5033109;28;20045;-66
2022/08/13 05:26:08;;;;;;;;;;;;;;;;;;5032523;28;20053;-66
2022/08/13 05:28:56;;;;;;;8.77;7.32;;;;;;;;;;5029409;28;19929;-66
2022/08/13 05:31:23;;;;;;;7.93;7.18;;;;;;;;;;5032897;28;20092;-66
2022/08/13 05:33:49;;;;;;;8.60;7.20;;;;;;;;;;5032814;28;20093;-66
2022/08/13 05:36:31;;;;;;;7.70;7.00;;;;;;;;;;5032585;28;20049;-67
2022/08/13 05:39:17;;;;;;;7.28;6.65;;;;;;;;;;5032831;28;20057;-66
2022/08/13 05:41:47;;;;;;;7.68;6.97;;;;;;;;;;5033018;28;20056;-65
2022/08/13 05:44:34;;;;;;;7.20;6.60;;;;;;;;;;5032460;28;20045;-65
2022/08/13 05:47:04;;;;;;;7.30;6.60;;;;;;;;;;5032454;28;20053;-65
2022/08/13 05:49:33;;;;;;;7.45;6.85;;;;;;;;;;5032565;28;20452;-65
2022/08/13 05:52:08;;;;;;;8.10;7.30;;;;;;;;;;5032707;28;20053;-65
2022/08/13 05:54:55;;;;;;;8.15;7.50;;;;;;;;;;5031823;28;20505;-65
2022/08/13 05:57:42;;;;;;;9.70;9.00;;;;;;;;;;5031911;28;20144;-65
2022/08/13 06:06:09;;;;;;;9.43;8.63;;;;;;;;;;5032263;28;20056;-65
2022/08/13 06:08:40;;;;;;;11.35;10.55;;;;;;;;;;5032265;28;20041;-65
2022/08/13 06:11:11;;;;;;;10.88;9.93;;;;;;;;;;5029777;28;20068;-65
2022/08/13 06:13:45;;;;;;;11.15;10.05;;;;;;;;;;5030045;28;20387;-66
2022/08/13 06:16:32;;;;;;;9.90;9.00;;;;;;;;;;5032175;28;20045;-67
2022/08/13 06:19:23;;;;;;;8.93;8.30;;;;;;;;;;5030682;28;20128;-66
2022/08/13 06:22:02;;;;;;;8.93;8.07;;;;;;;;;;5031658;28;20053;-66
2022/08/13 06:24:32;;;;;;;9.15;8.25;;;;;;;;;;5030812;28;20528;-66
2022/08/13 06:27:04;;;;;;;8.93;8.07;;;;;;;;;;5031940;28;20152;-65
2022/08/13 06:29:43;;;;;;;8.90;8.00;;;;;;;;;;5030748;28;20077;-67
2022/08/13 06:32:16;;;;;;;9.20;8.30;;;;;;;;;;5031656;28;20136;-68
2022/08/13 06:35:05;;;;;;;9.50;8.30;;;;;;;;;;5031496;28;20059;-67
2022/08/13 06:37:35;;;;;;;8.68;7.75;;;;;;;;;;5031547;28;20584;-67
2022/08/13 06:40:09;;;;;;;8.38;7.65;;;;;;;;;;5031326;28;20053;-66
2022/08/13 06:42:56;;;;;;;7.90;7.25;;;;;;;;;;5031240;28;20523;-67
2022/08/13 06:45:24;;;;;;;8.75;7.15;;;;;;;;;;5031638;28;20041;-69
2022/08/13 06:47:51;;;;;;;7.47;6.83;;;;;;;;;;5031665;28;20068;-67
2022/08/13 06:50:26;;;;;;;7.03;6.47;;;;;;;;;;5031724;28;20052;-68
2022/08/13 06:52:54;;;;;;;7.13;6.35;;;;;;;;;;5031570;28;20049;-66
2022/08/13 06:55:42;;;;;;;6.18;5.68;;;;;;;;;;5031213;28;20057;-68
2022/08/13 06:58:30;;;;;;;6.32;5.40;;;;;;;;;;5031417;28;20382;-68
2022/08/13 07:00:59;;;;;;;5.90;5.32;;;;;;;;;;5031419;28;20081;-67
2022/08/13 07:03:31;;;;;;;5.80;5.03;;;;;;;;;;5031022;28;20045;-67
2022/08/13 07:06:19;;;;;;;6.18;5.25;;;;;;;;;;5030887;28;20077;-67
2022/08/13 07:08:47;;;;;;;5.78;4.65;;;;;;;;;;5028209;28;20182;-68
2022/08/13 07:11:24;;;;;;;;;;;;;;;;;;5030976;28;20092;-67
2022/08/13 07:14:03;;;;;;;4.72;4.32;;;;;;;;;;5029393;28;19947;-67
2022/08/13 07:16:32;;;;;;;5.38;4.20;;;;;;;;;;5029152;28;20512;-67
2022/08/13 07:19:00;;;;;;;4.28;3.88;;;;;;;;;;5030470;28;20088;-67
2022/08/13 07:21:27;;;;;;;4.30;3.83;;;;;;;;;;5031130;28;20057;-67
2022/08/13 07:24:09;;;;;;;4.00;3.60;;;;;;;;;;5030573;28;20045;-67
2022/08/13 07:26:59;;;;;;;3.80;3.50;;;;;;;;;;5031403;28;20057;-67
2022/08/13 07:29:26;;;;;;;9.05;4.00;;;;;;;;;;5031662;28;20058;-67
2022/08/13 07:31:54;;;;;;;4.88;4.35;;;;;;;;;;5031380;28;20512;-67
2022/08/13 07:34:32;;;;;;;4.20;3.30;;;;;;;;;;5031439;28;20049;-67
2022/08/13 07:37:00;;;;;;;6.30;3.55;;;;;;;;;;5031637;28;20103;-68
2022/08/13 07:39:30;;;;;;;4.20;3.83;;;;;;;;;;5031107;28;20104;-66
2022/08/13 07:42:16;;;;;;;4.75;3.30;;;;;;;;;;5020339;28;20065;-65
2022/08/13 07:44:54;;;;;;;5.72;3.45;;;;;;;;;;5031576;28;20148;-67
2022/08/13 07:47:46;;;;;;;4.30;3.88;;;;;;;;;;5029199;28;20136;-67
2022/08/13 07:50:33;;;;;;;5.43;3.55;;;;;;;;;;5029885;28;20046;-68
2022/08/13 07:53:00;;;;;;;6.22;3.03;;;;;;;;;;5030441;28;20041;-66
2022/08/13 07:55:27;;;;;;;3.70;3.40;;;;;;;;;;5028673;28;20053;-66
2022/08/13 07:58:13;;;;;;;4.72;3.40;;;;;;;;;;5029075;28;20152;-66
2022/08/13 08:00:46;;;;;;;3.60;3.30;;;;;;;;;;5029900;28;20136;-65
2022/08/13 08:03:13;;;;;;;4.45;3.22;;;;;;;;;;5029874;28;20049;-66
2022/08/13 08:05:41;;;;;;;5.75;3.20;;;;;;;;;;5029929;28;20505;-66
2022/08/13 08:08:08;;;;;;;5.13;3.10;;;;;;;;;;5027548;28;20406;-65
2022/08/13 08:10:40;;;;;;;4.53;3.20;;;;;;;;;;5029705;28;20057;-66
2022/08/13 08:13:08;;;;;;;4.35;3.03;;;;;;;;;;5029511;28;20052;-66
2022/08/13 08:15:37;;;;;;;4.20;3.03;;;;;;;;;;5030339;28;20049;-66
2022/08/13 08:18:24;;;;;;;5.57;3.03;;;;;;;;;;5029604;28;20045;-65
2022/08/13 08:21:12;;;;;;;3.55;2.72;;;;;;;;;;5033661;28;20060;-66
2022/08/13 08:24:01;;;;;;;3.30;3.10;;;;;;;;;;5033365;28;20053;-66
2022/08/13 08:26:32;;;;;;;3.47;2.58;;;;;;;;;;5033700;28;20441;-66
2022/08/13 08:28:59;;;;;;;3.80;2.90;;;;;;;;;;5032661;28;20458;-65
2022/08/13 08:31:26;;;;;;;4.07;2.83;;;;;;;;;;5033897;28;20088;-66
2022/08/13 08:34:16;;;;;;;3.88;2.65;;;;;;;;;;5034267;28;20053;-66
2022/08/13 08:36:43;;;;;;;3.03;2.60;;;;;;;;;;5033036;28;20073;-66
2022/08/13 08:44:55;;;;;;;;;;;;;;;;;;5034261;28;20053;-67
2022/08/13 08:47:27;;;;;;;3.20;2.83;;;;;;;;;;5033881;28;19921;-66
2022/08/13 08:50:13;;;;;;;4.15;2.75;;;;;;;;;;5029570;28;20046;-66
2022/08/13 08:55:46;;;;;;;;;;;;;;;;;;5031462;28;20409;-67
2022/08/13 08:58:21;;;;;;;3.67;2.50;;;;;;;;;;5033545;28;19968;-65
2022/08/13 09:01:07;;;;;;;4.10;2.60;;;;;;;;;;5033225;28;20084;-66
2022/08/13 09:03:39;;;;;;;4.78;2.70;;;;;;;;;;5033613;28;20046;-66
2022/08/13 09:06:24;;;;;;;4.07;3.17;;;;;;;;;;5033569;28;20056;-67
2022/08/13 09:09:13;;;;;;;4.30;2.75;;;;;;;;;;5033310;28;20446;-66
2022/08/13 09:11:44;;;;;;;6.43;2.58;;;;;;;;;;5033187;28;20049;-67
2022/08/13 09:14:20;;;;;;;6.50;3.20;;;;;;;;;;5033201;28;20060;-66
2022/08/13 09:16:49;;;;;;;4.90;2.65;;;;;;;;;;5032691;28;20053;-67
2022/08/13 09:19:17;;;;;;;2.95;2.70;;;;;;;;;;5032935;28;20060;-68
2022/08/13 09:21:59;;;;;;;4.15;2.67;;;;;;;;;;5033346;28;20088;-68
2022/08/13 09:24:25;;;;;;;4.43;2.63;;;;;;;;;;5032513;28;20535;-65
2022/08/13 09:26:52;;;;;;;2.55;2.35;;;;;;;;;;5033044;28;20053;-67
2022/08/13 09:29:25;;;;;;;2.78;2.28;;;;;;;;;;5032789;28;20056;-64
2022/08/13 09:31:58;;;;;;;3.63;2.58;;;;;;;;;;5032997;28;20050;-66
2022/08/13 09:34:27;;;;;;;3.30;2.37;;;;;;;;;;5032697;28;20111;-68
2022/08/13 09:36:57;;;;;;;7.60;2.67;;;;;;;;;;5032938;28;20084;-69
2022/08/13 09:39:30;;;;;;;4.15;2.50;;;;;;;;;;5033053;28;20500;-68
2022/08/13 09:42:12;;;;;;;4.72;2.33;;;;;;;;;;5032600;28;20053;-67
2022/08/13 09:44:41;;;;;;;2.70;2.33;;;;;;;;;;5029979;28;20049;-68
2022/08/13 09:47:12;;;;;;;2.85;2.40;;;;;;;;;;5032501;28;20046;-69
2022/08/13 09:49:58;;;;;;;4.60;2.50;;;;;;;;;;5032569;28;20050;-65
2022/08/13 09:52:30;;;;;;;5.00;2.90;;;;;;;;;;5032613;28;20124;-67
2022/08/13 09:54:57;;;;;;;7.07;2.50;;;;;;;;;;5030572;28;20080;-67
2022/08/13 09:57:24;;;;;;;2.88;2.58;;;;;;;;;;5029447;28;20059;-66
2022/08/13 09:59:51;;;;;;;3.22;2.28;;;;;;;;;;5031509;28;20084;-67
2022/08/13 10:02:23;;;;;;;3.28;2.45;;;;;;;;;;5031171;28;20076;-65
2022/08/13 10:04:52;;;;;;;6.20;2.50;;;;;;;;;;5031630;28;20053;-66
2022/08/13 10:07:19;;;;;;;3.03;2.40;;;;;;;;;;5031294;28;20045;-66
2022/08/13 10:09:47;;;;;;;4.70;2.60;;;;;;;;;;5029305;28;20045;-66
2022/08/13 10:12:34;;;;;;;3.70;2.42;;;;;;;;;;5028915;28;20124;-65
2022/08/13 10:15:00;;;;;;;4.07;2.60;;;;;;;;;;5031616;28;20049;-66
2022/08/13 10:17:41;;;;;;;3.83;2.20;;;;;;;;;;5030079;28;20103;-66
2022/08/13 10:20:18;;;;;;;4.15;2.20;;;;;;;;;;5026614;28;20544;-74
2022/08/13 10:22:46;;;;;;;3.47;2.42;;;;;;;;;;5030312;28;20053;-66
2022/08/13 10:25:13;;;;;;;4.55;2.53;;;;;;;;;;5030521;28;20061;-68
2022/08/13 10:27:44;;;;;;;2.65;2.13;;;;;;;;;;5032484;28;20072;-66
2022/08/13 10:30:15;;;;;;;2.40;2.20;;;;;;;;;;5031723;28;20060;-66
2022/08/13 10:33:02;;;;;;;8.65;3.35;;;;;;;;;;5031898;28;20485;-68
2022/08/13 10:35:29;;;;;;;5.68;2.50;;;;;;;;;;5031803;28;20053;-66
2022/08/13 10:37:59;;;;;;;2.08;1.88;;;;;;;;;;5030512;28;20060;-66
2022/08/13 10:40:32;;;;;;;3.00;2.10;;;;;;;;;;5032020;28;20559;-68
2022/08/13 10:43:04;;;;;;;2.70;2.10;;;;;;;;;;5031426;28;20077;-68
2022/08/13 10:45:31;;;;;;;2.97;2.28;;;;;;;;;;5031892;28;20053;-69
2022/08/13 10:48:00;;;;;;;1.90;1.80;;;;;;;;;;5032161;28;20076;-66
2022/08/13 10:50:30;;;;;;;2.35;2.08;;;;;;;;;;5032099;28;20049;-65
2022/08/13 10:52:57;;;;;;;2.50;2.10;;;;;;;;;;5031916;28;20555;-65
2022/08/13 10:55:24;;;;;;;5.13;2.20;;;;;;;;;;5032125;28;20081;-65
2022/08/13 10:57:52;;;;;;;2.70;2.10;;;;;;;;;;5031733;28;20501;-65
2022/08/13 11:00:26;;;;;;;3.77;2.43;;;;;;;;;;5031651;28;20416;-67
2022/08/13 11:02:54;;;;;;;2.55;2.00;;;;;;;;;;5031990;28;20132;-65
2022/08/13 11:05:25;;;;;;;2.75;2.10;;;;;;;;;;5031670;28;20136;-68
2022/08/13 11:07:53;;;;;;;2.10;1.90;;;;;;;;;;5031815;28;20049;-65
2022/08/13 11:10:23;;;;;;;2.65;2.05;;;;;;;;;;5031401;28;20053;-65
2022/08/13 11:12:58;;;;;;;3.20;2.17;;;;;;;;;;5031108;28;20485;-66
2022/08/13 11:15:41;;;;;;;4.03;2.03;;;;;;;;;;5029152;28;20055;-66
2022/08/13 11:18:12;;;;;;;4.63;2.13;;;;;;;;;;5031469;28;20401;-66
2022/08/13 11:21:02;;;;;;;2.22;1.77;;;;;;;;;;5031055;28;20103;-66
2022/08/13 11:23:48;;;;;;;3.58;2.03;;;;;;;;;;5030999;28;20416;-65
2022/08/13 11:26:18;;;;;;;2.58;1.70;;;;;;;;;;5031295;28;20046;-65
2022/08/13 11:28:55;;;;;;;3.20;2.10;;;;;;;;;;5030905;28;20073;-65
2022/08/13 11:31:21;;;;;;;4.82;1.75;;;;;;;;;;5031267;28;20091;-64
2022/08/13 11:34:07;;;;;;;2.00;1.80;;;;;;;;;;5030182;28;20045;-65
2022/08/13 11:36:39;;;;;;;2.45;1.67;;;;;;;;;;5031296;28;20041;-65
2022/08/13 11:39:07;;;;;;;2.92;1.75;;;;;;;;;;5031221;28;20053;-65
2022/08/13 11:41:33;;;;;;;2.95;1.95;;;;;;;;;;5030728;28;20490;-65
2022/08/13 11:44:20;;;;;;;3.28;2.17;;;;;;;;;;5030831;28;20137;-64
2022/08/13 11:46:46;;;;;;;6.38;2.20;;;;;;;;;;5029774;28;20053;-65
2022/08/13 11:49:13;;;;;;;2.90;1.83;;;;;;;;;;5031054;28;20073;-65
2022/08/13 11:51:46;;;;;;;3.72;2.10;;;;;;;;;;5031063;28;20041;-66
2022/08/13 11:54:22;;;;;;;3.28;2.33;;;;;;;;;;5032617;28;20049;-65
2022/08/13 11:56:59;;;;;;;3.92;2.20;;;;;;;;;;5035379;28;20160;-65
2022/08/13 11:59:25;;;;;;;3.47;1.70;;;;;;;;;;5034969;28;20493;-66
2022/08/13 12:02:08;;;;;;;4.53;2.10;;;;;;;;;;5034922;28;20052;-65
2022/08/13 12:04:41;;;;;;;4.53;2.00;;;;;;;;;;5035181;28;20053;-65
2022/08/13 12:07:07;;;;;;;1.80;1.67;;;;;;;;;;5032869;28;20077;-65
2022/08/13 12:09:40;;;;;;;3.25;1.65;;;;;;;;;;5034329;28;20057;-64
2022/08/13 12:12:15;;;;;;;2.25;1.90;;;;;;;;;;5033940;28;20054;-64
2022/08/13 12:14:48;;;;;;;3.13;2.05;;;;;;;;;;5034139;28;20076;-64
2022/08/13 12:17:15;;;;;;;2.97;2.17;;;;;;;;;;5033965;28;20041;-64
2022/08/13 12:19:48;;;;;;;4.53;1.90;;;;;;;;;;5032986;28;20111;-64
2022/08/13 12:48:04;;;;;;;2.88;2.10;;;;;;;;;;5030772;28;20056;-66
2022/08/13 12:50:30;;;;;;;3.78;1.95;;;;;;;;;;5033849;28;20069;-65
2022/08/13 12:52:57;;;;;;;3.40;1.80;;;;;;;;;;5033501;28;20081;-68
2022/08/13 12:55:23;;;;;;;4.72;2.72;;;;;;;;;;5032500;28;20493;-66
2022/08/13 12:58:17;;;;;;;7.63;3.17;;;;;;;;;;5032929;28;20099;-67
2022/08/13 13:00:51;;;;;;;4.57;3.33;;;;;;;;;;5034100;28;20148;-66
2022/08/13 13:03:19;;;;;;;3.00;1.85;;;;;;;;;;5033926;28;20053;-66
2022/08/13 13:05:52;;;;;;;3.50;2.42;;;;;;;;;;5033175;28;20483;-65
2022/08/13 13:08:20;;;;;;;2.55;1.67;;;;;;;;;;5033731;28;20045;-64
2022/08/13 13:10:59;;;;;;;2.17;1.70;;;;;;;;;;5033288;28;20057;-65
2022/08/13 13:13:26;;;;;;;4.07;2.72;;;;;;;;;;5033675;28;20444;-64
2022/08/13 13:16:12;;;;;;;1.90;1.77;;;;;;;;;;5031068;28;20065;-64
2022/08/13 13:18:59;;;;;;;2.00;1.77;;;;;;;;;;5033559;28;20107;-65
2022/08/13 13:21:29;;;;;;;2.42;1.70;;;;;;;;;;5033251;28;20107;-66
2022/08/13 13:24:01;;;;;;;2.75;1.77;;;;;;;;;;5033366;28;20189;-67
2022/08/13 13:26:31;;;;;;;3.97;1.67;;;;;;;;;;5032710;28;20045;-66
2022/08/13 13:28:58;;;;;;;3.33;1.70;;;;;;;;;;5032991;28;20057;-66
2022/08/13 13:31:24;;;;;;;2.83;1.90;;;;;;;;;;5033219;28;20037;-66
2022/08/13 13:34:11;;;;;;;3.22;1.80;;;;;;;;;;5032713;28;20136;-65
2022/08/13 13:36:37;;;;;;;3.22;1.80;;;;;;;;;;5023417;28;20081;-65
2022/08/13 13:39:05;;;;;;;2.42;1.60;;;;;;;;;;5032717;28;20057;-67
2022/08/13 13:41:46;;;;;;;3.53;2.30;;;;;;;;;;5031338;28;20053;-67
2022/08/13 13:44:19;;;;;;;1.88;1.67;;;;;;;;;;5024781;28;20053;-65
2022/08/13 13:47:04;;;;;;;2.28;1.88;;;;;;;;;;5029249;28;20050;-66
2022/08/13 13:49:32;;;;;;;4.22;2.00;;;;;;;;;;5024077;28;20056;-66
2022/08/13 13:51:58;;;;;;;2.13;1.42;;;;;;;;;;5031426;28;20049;-66
2022/08/13 13:54:25;;;;;;;2.17;1.70;;;;;;;;;;5026128;28;20493;-65
2022/08/13 13:56:52;;;;;;;3.47;2.15;;;;;;;;;;5031863;28;20053;-66
2022/08/13 13:59:18;;;;;;;2.72;2.28;;;;;;;;;;5032160;28;20092;-66
2022/08/13 14:02:02;;;;;;;1.95;1.60;;;;;;;;;;5032007;28;20157;-65
2022/08/13 14:04:29;;;;;;;3.10;1.60;;;;;;;;;;5032011;28;20525;-66
2022/08/13 14:07:05;;;;;;;2.92;2.70;;;;;;;;;;5032270;28;20096;-66
2022/08/13 14:09:52;;;;;;;2.75;1.75;;;;;;;;;;5031746;28;20440;-65
2022/08/13 14:12:20;;;;;;;2.83;1.70;;;;;;;;;;5031682;28;20045;-67
2022/08/13 14:14:48;;;;;;;1.52;1.42;;;;;;;;;;5031681;28;20080;-67
2022/08/13 14:17:17;;;;;;;1.98;1.77;;;;;;;;;;5031016;28;20362;-65
2022/08/13 14:19:44;;;;;;;2.58;1.70;;;;;;;;;;5031549;28;20633;-65
2022/08/13 14:22:22;;;;;;;2.95;1.60;;;;;;;;;;5031724;28;20063;-64
2022/08/13 14:24:49;;;;;;;1.90;1.58;;;;;;;;;;5031854;28;20107;-65
2022/08/13 14:27:17;;;;;;;3.53;1.60;;;;;;;;;;5031026;28;20115;-66
2022/08/13 14:29:46;;;;;;;3.47;1.80;;;;;;;;;;5031821;28;20145;-66
2022/08/13 14:32:18;;;;;;;1.70;1.60;;;;;;;;;;5030914;28;20486;-66
2022/08/13 14:34:49;;;;;;;3.10;1.60;;;;;;;;;;5031685;28;20052;-67
2022/08/13 14:37:20;;;;;;;2.65;1.65;;;;;;;;;;5031453;28;20064;-67
2022/08/13 14:39:48;;;;;;;3.17;1.98;;;;;;;;;;5031607;28;20061;-65
2022/08/13 14:42:28;;;;;;;2.15;1.85;;;;;;;;;;5030501;28;20444;-65
2022/08/13 14:48:20;;;;;;;3.30;1.80;;;;;;;;;;5030609;28;20076;-64
2022/08/13 14:50:51;;;;;;;3.75;1.58;;;;;;;;;;5030194;28;20501;-65
2022/08/13 14:53:22;;;;;;;1.60;1.38;;;;;;;;;;5028921;28;20046;-65
2022/08/13 14:55:49;;;;;;;2.50;1.80;;;;;;;;;;5030077;28;20653;-65
2022/08/13 14:58:16;;;;;;;1.90;1.80;;;;;;;;;;5030271;28;20532;-64
2022/08/13 15:01:01;;;;;;;;;;;;;;;;;;5030790;28;20052;-64
2022/08/13 15:03:27;;;;;;;3.65;1.90;;;;;;;;;;5030626;28;19929;-65
2022/08/13 15:05:56;;;;;;;1.75;1.55;;;;;;;;;;5028899;28;20081;-65
2022/08/13 15:08:28;;;;;;;2.03;1.65;;;;;;;;;;5027903;28;20045;-64
2022/08/13 15:11:00;;;;;;;2.10;1.80;;;;;;;;;;5022838;28;20115;-65
2022/08/13 15:13:34;;;;;;;3.53;1.88;;;;;;;;;;5031023;28;20499;-66
2022/08/13 15:16:23;;;;;;;3.33;2.08;;;;;;;;;;5030852;28;20564;-66
2022/08/13 15:18:52;;;;;;;4.93;2.00;;;;;;;;;;5030971;28;20053;-66
2022/08/13 15:21:19;;;;;;;2.88;1.80;;;;;;;;;;5030728;28;20053;-64
2022/08/13 15:24:06;;;;;;;3.75;2.20;;;;;;;;;;5030989;28;20057;-65
2022/08/13 15:26:32;;;;;;;1.98;1.88;;;;;;;;;;5030758;28;20041;-64
2022/08/13 15:29:03;;;;;;;1.90;1.80;;;;;;;;;;5033331;28;20409;-65
2022/08/13 15:31:30;;;;;;;2.72;1.98;;;;;;;;;;5035317;28;20049;-63
2022/08/13 15:33:57;;;;;;;1.80;1.70;;;;;;;;;;5035061;28;20119;-64
2022/08/13 15:36:24;;;;;;;2.22;1.70;;;;;;;;;;5034813;28;20085;-65
2022/08/13 15:39:10;;;;;;;1.90;1.80;;;;;;;;;;5034782;28;20103;-64
2022/08/13 15:41:39;;;;;;;1.73;1.60;;;;;;;;;;5034947;28;20050;-66
2022/08/13 15:44:06;;;;;;;7.40;2.53;;;;;;;;;;5034757;28;20057;-65
2022/08/13 15:46:32;;;;;;;2.10;1.80;;;;;;;;;;5034588;28;20482;-64
2022/08/13 15:48:59;;;;;;;1.88;1.63;;;;;;;;;;5034413;28;20065;-64
2022/08/13 15:51:25;;;;;;;1.98;1.83;;;;;;;;;;5034561;28;20566;-64
2022/08/13 15:53:56;;;;;;;2.00;1.90;;;;;;;;;;5032677;28;20111;-65
2022/08/13 15:56:28;;;;;;;2.50;2.15;;;;;;;;;;5034647;28;20133;-65
2022/08/13 15:59:04;;;;;;;4.50;2.05;;;;;;;;;;5034675;28;20064;-65
2022/08/13 16:01:36;;;;;;;2.88;1.90;;;;;;;;;;5033942;28;20045;-66
2022/08/13 16:04:14;;;;;;;2.65;2.00;;;;;;;;;;5033916;28;20057;-66
2022/08/13 16:06:42;;;;;;;3.75;2.30;;;;;;;;;;5033301;28;20107;-65